Time;durP1;ratioP1;P1;durP2;ratioP2;P2;SDS_P1;SDS_P2;PMS_P1;PMS_P2;Temp;Humidity;BMP_temperature;BMP_pressure;BME280_temperature;BME280_humidity;BME280_pressure;Samples;Min_cycle;Max_cycle;Signal;HPM_P1;HPM_P2
2020/12/20 00:01:56;;;;;;;20.10;2.65;;;;;;;;;;5037868;28;20024;-68
2020/12/20 00:04:21;;;;;;;21.50;2.30;;;;;;;;;;5026460;28;20067;-75
2020/12/20 00:06:47;;;;;;;23.67;3.53;;;;;;;;;;5029511;28;20100;-68
2020/12/20 00:09:15;;;;;;;23.20;2.65;;;;;;;;;;5036171;28;20983;-68
2020/12/20 00:11:41;;;;;;;20.50;3.58;;;;;;;;;;5028894;28;20068;-68
2020/12/20 00:14:26;;;;;;;19.65;4.45;;;;;;;;;;5029542;28;20025;-67
2020/12/20 00:16:52;;;;;;;22.20;3.75;;;;;;;;;;5029661;28;20753;-68
2020/12/20 00:19:18;;;;;;;20.15;2.58;;;;;;;;;;5032332;28;20045;-68
2020/12/20 00:21:43;;;;;;;23.63;2.55;;;;;;;;;;5032976;28;20017;-68
2020/12/20 00:24:09;;;;;;;22.30;2.67;;;;;;;;;;5033110;28;20029;-67
2020/12/20 00:26:35;;;;;;;30.40;6.80;;;;;;;;;;5033524;28;20029;-68
2020/12/20 00:29:00;;;;;;;21.00;5.25;;;;;;;;;;5052980;28;20766;-69
2020/12/20 00:31:25;;;;;;;22.80;4.18;;;;;;;;;;5053637;28;20020;-68
2020/12/20 00:33:51;;;;;;;18.27;3.58;;;;;;;;;;5034052;28;20059;-69
2020/12/20 00:36:16;;;;;;;14.57;3.72;;;;;;;;;;5034432;28;20017;-68
2020/12/20 00:38:41;;;;;;;21.02;6.07;;;;;;;;;;5032807;28;20496;-71
2020/12/20 00:41:10;;;;;;;19.40;4.80;;;;;;;;;;5039475;28;20068;-67
2020/12/20 00:43:35;;;;;;;16.23;3.97;;;;;;;;;;5052583;28;20092;-68
2020/12/20 00:46:00;;;;;;;21.30;4.25;;;;;;;;;;5053781;28;20039;-68
2020/12/20 00:48:25;;;;;;;24.08;3.45;;;;;;;;;;5051992;28;20388;-68
2020/12/20 00:50:51;;;;;;;12.40;2.80;;;;;;;;;;5044943;28;20052;-68
2020/12/20 00:53:16;;;;;;;14.48;2.88;;;;;;;;;;5032834;28;20018;-68
2020/12/20 00:55:41;;;;;;;22.42;3.80;;;;;;;;;;5032722;28;20044;-67
2020/12/20 00:58:06;;;;;;;15.57;2.78;;;;;;;;;;5032490;28;20040;-68
2020/12/20 01:00:31;;;;;;;14.98;2.55;;;;;;;;;;5032849;28;20079;-68
2020/12/20 01:02:57;;;;;;;25.90;2.70;;;;;;;;;;5032275;28;20037;-68
2020/12/20 01:05:22;;;;;;;19.95;2.67;;;;;;;;;;5032618;28;20029;-69
2020/12/20 01:07:47;;;;;;;14.70;1.83;;;;;;;;;;5032176;28;20352;-67
2020/12/20 01:10:12;;;;;;;21.40;2.17;;;;;;;;;;5035516;28;20082;-69
2020/12/20 01:12:38;;;;;;;27.70;4.28;;;;;;;;;;5052294;28;20017;-75
2020/12/20 01:15:03;;;;;;;16.52;2.10;;;;;;;;;;5053016;28;20518;-69
2020/12/20 01:17:28;;;;;;;18.92;2.60;;;;;;;;;;5052026;28;20037;-67
2020/12/20 01:19:54;;;;;;;20.85;2.75;;;;;;;;;;5051846;28;20017;-68
2020/12/20 01:22:19;;;;;;;23.02;2.65;;;;;;;;;;5051912;28;20039;-68
2020/12/20 01:24:44;;;;;;;22.05;3.00;;;;;;;;;;5038732;28;20090;-68
2020/12/20 01:27:09;;;;;;;24.17;2.20;;;;;;;;;;5032399;28;20025;-68
2020/12/20 01:29:35;;;;;;;17.33;2.95;;;;;;;;;;5029678;28;20018;-69
2020/12/20 01:32:00;;;;;;;36.13;3.15;;;;;;;;;;5031965;28;20140;-68
2020/12/20 01:34:25;;;;;;;24.98;2.90;;;;;;;;;;5031409;28;20056;-68
2020/12/20 01:36:50;;;;;;;26.88;3.67;;;;;;;;;;5031671;28;20021;-68
2020/12/20 01:39:17;;;;;;;22.25;2.95;;;;;;;;;;5031705;28;20025;-68
2020/12/20 01:41:42;;;;;;;20.15;2.88;;;;;;;;;;5043556;28;20024;-67
2020/12/20 01:44:08;;;;;;;19.42;2.35;;;;;;;;;;5036793;28;20025;-68
2020/12/20 01:46:33;;;;;;;26.98;3.20;;;;;;;;;;5031700;28;20038;-68
2020/12/20 01:48:58;;;;;;;20.35;2.72;;;;;;;;;;5030498;28;20018;-68
2020/12/20 01:51:24;;;;;;;21.50;4.20;;;;;;;;;;5031484;28;20056;-67
2020/12/20 01:53:50;;;;;;;20.38;1.98;;;;;;;;;;5030880;28;20075;-68
2020/12/20 01:56:17;;;;;;;22.38;2.60;;;;;;;;;;5031865;28;20634;-69
2020/12/20 01:58:44;;;;;;;16.67;2.05;;;;;;;;;;5030923;28;20028;-68
2020/12/20 02:01:10;;;;;;;21.55;2.88;;;;;;;;;;5031227;28;20048;-68
2020/12/20 02:03:35;;;;;;;19.95;2.35;;;;;;;;;;5030630;28;20017;-69
2020/12/20 02:06:02;;;;;;;13.65;2.15;;;;;;;;;;5030717;28;20052;-68
2020/12/20 02:08:27;;;;;;;17.02;2.85;;;;;;;;;;5031031;28;20039;-68
2020/12/20 02:11:06;;;;;;;18.00;2.92;;;;;;;;;;5030974;28;20017;-68
2020/12/20 02:13:31;;;;;;;30.50;3.25;;;;;;;;;;5030743;28;20049;-68
2020/12/20 02:15:57;;;;;;;22.95;2.90;;;;;;;;;;5030797;28;20033;-69
2020/12/20 02:18:22;;;;;;;19.42;2.88;;;;;;;;;;5030808;28;20018;-68
2020/12/20 02:20:47;;;;;;;20.40;1.77;;;;;;;;;;5029203;28;20386;-69
2020/12/20 02:23:13;;;;;;;18.73;2.20;;;;;;;;;;5030654;28;20025;-68
2020/12/20 02:25:39;;;;;;;21.10;5.22;;;;;;;;;;5030809;28;20034;-68
2020/12/20 02:28:05;;;;;;;19.02;2.35;;;;;;;;;;5030540;28;20029;-69
2020/12/20 02:30:30;;;;;;;14.77;2.63;;;;;;;;;;5030391;28;20179;-68
2020/12/20 02:32:55;;;;;;;20.13;2.33;;;;;;;;;;5030751;28;20052;-68
2020/12/20 02:35:21;;;;;;;20.13;3.10;;;;;;;;;;5030520;28;20029;-68
2020/12/20 02:37:46;;;;;;;21.15;2.38;;;;;;;;;;5029987;28;20038;-68
2020/12/20 02:40:11;;;;;;;49.00;6.35;;;;;;;;;;5030577;28;20473;-68
2020/12/20 02:42:36;;;;;;;18.55;2.65;;;;;;;;;;5040331;28;20029;-71
2020/12/20 02:45:02;;;;;;;25.88;2.65;;;;;;;;;;5030188;28;20048;-68
2020/12/20 02:47:27;;;;;;;20.38;2.90;;;;;;;;;;5030784;28;20028;-67
2020/12/20 02:49:52;;;;;;;17.70;2.70;;;;;;;;;;5029857;28;20025;-68
2020/12/20 02:52:18;;;;;;;24.10;2.08;;;;;;;;;;5030520;28;20041;-69
2020/12/20 02:54:43;;;;;;;18.60;2.40;;;;;;;;;;5029829;28;20096;-69
2020/12/20 02:57:08;;;;;;;17.33;2.08;;;;;;;;;;5030402;28;20057;-68
2020/12/20 02:59:33;;;;;;;25.98;2.15;;;;;;;;;;5028873;28;20044;-70
2020/12/20 03:01:59;;;;;;;21.73;2.13;;;;;;;;;;5030002;28;20100;-67
2020/12/20 03:04:24;;;;;;;17.75;2.35;;;;;;;;;;5030058;28;20084;-67
2020/12/20 03:06:49;;;;;;;23.42;3.22;;;;;;;;;;5029831;28;20036;-68
2020/12/20 03:09:14;;;;;;;20.65;2.05;;;;;;;;;;5029649;28;20742;-68
2020/12/20 03:11:40;;;;;;;20.55;2.50;;;;;;;;;;5028666;28;20026;-68
2020/12/20 03:14:05;;;;;;;25.55;2.70;;;;;;;;;;5030156;28;20516;-68
2020/12/20 03:16:31;;;;;;;26.70;2.17;;;;;;;;;;5029612;28;20032;-68
2020/12/20 03:18:56;;;;;;;16.08;2.95;;;;;;;;;;5029830;28;20288;-67
2020/12/20 03:21:21;;;;;;;18.55;2.13;;;;;;;;;;5029714;28;20539;-68
2020/12/20 03:23:46;;;;;;;34.38;2.60;;;;;;;;;;5029472;28;20014;-68
2020/12/20 03:26:12;;;;;;;25.40;2.55;;;;;;;;;;5029518;28;20457;-68
2020/12/20 03:28:37;;;;;;;18.02;2.60;;;;;;;;;;5030325;28;20029;-68
2020/12/20 03:31:02;;;;;;;26.77;2.35;;;;;;;;;;5029391;28;20358;-68
2020/12/20 03:33:28;;;;;;;36.83;3.38;;;;;;;;;;5028844;28;20050;-67
2020/12/20 03:35:53;;;;;;;19.33;2.38;;;;;;;;;;5028929;28;20044;-68
2020/12/20 03:38:18;;;;;;;23.13;2.70;;;;;;;;;;5029830;28;20013;-68
2020/12/20 03:40:44;;;;;;;21.15;2.08;;;;;;;;;;5032005;28;20029;-68
2020/12/20 03:43:09;;;;;;;21.30;2.08;;;;;;;;;;5046729;28;20057;-68
2020/12/20 03:45:34;;;;;;;22.40;2.17;;;;;;;;;;5029538;28;20116;-67
2020/12/20 03:47:59;;;;;;;30.90;2.53;;;;;;;;;;5028726;28;20033;-68
2020/12/20 03:50:25;;;;;;;17.27;2.50;;;;;;;;;;5029033;28;20041;-67
2020/12/20 03:52:50;;;;;;;20.08;1.92;;;;;;;;;;5027967;28;20010;-68
2020/12/20 03:55:15;;;;;;;23.70;2.80;;;;;;;;;;5029588;28;20029;-73
2020/12/20 03:57:41;;;;;;;23.35;2.45;;;;;;;;;;5029182;28;20037;-68
2020/12/20 04:00:06;;;;;;;16.38;2.03;;;;;;;;;;5028733;28;20992;-68
2020/12/20 04:02:32;;;;;;;25.20;2.80;;;;;;;;;;5029267;28;20040;-67
2020/12/20 04:04:57;;;;;;;25.83;3.67;;;;;;;;;;5028455;28;20052;-68
2020/12/20 04:07:22;;;;;;;29.20;2.83;;;;;;;;;;5028760;28;20032;-68
2020/12/20 04:09:47;;;;;;;26.60;2.50;;;;;;;;;;5029571;28;20036;-69
2020/12/20 04:12:13;;;;;;;29.63;2.40;;;;;;;;;;5028816;28;20064;-68
2020/12/20 04:14:38;;;;;;;19.17;2.15;;;;;;;;;;5028824;28;20018;-68
2020/12/20 04:17:03;;;;;;;25.63;2.53;;;;;;;;;;5028759;28;20489;-68
2020/12/20 04:19:29;;;;;;;28.73;2.13;;;;;;;;;;5029355;28;20065;-68
2020/12/20 04:21:54;;;;;;;29.88;2.95;;;;;;;;;;5028542;28;20009;-68
2020/12/20 04:24:19;;;;;;;22.30;2.42;;;;;;;;;;5029508;28;20087;-68
2020/12/20 04:26:45;;;;;;;25.60;2.60;;;;;;;;;;5028742;28;20128;-67
2020/12/20 04:29:10;;;;;;;33.20;3.72;;;;;;;;;;5028676;28;20045;-67
2020/12/20 04:31:36;;;;;;;20.95;2.30;;;;;;;;;;5028840;28;20041;-69
2020/12/20 04:34:01;;;;;;;32.78;2.45;;;;;;;;;;5029122;28;20382;-67
2020/12/20 04:36:27;;;;;;;29.20;2.17;;;;;;;;;;5028474;28;20462;-68
2020/12/20 04:38:52;;;;;;;24.95;2.63;;;;;;;;;;5029180;28;20025;-68
2020/12/20 04:41:20;;;;;;;28.23;3.22;;;;;;;;;;5036116;28;20040;-69
2020/12/20 04:43:46;;;;;;;24.75;2.50;;;;;;;;;;5028044;28;20485;-70
2020/12/20 04:46:12;;;;;;;31.77;3.28;;;;;;;;;;5028653;28;20041;-68
2020/12/20 04:48:38;;;;;;;29.00;4.43;;;;;;;;;;5028993;28;20041;-68
2020/12/20 04:51:07;;;;;;;20.63;1.90;;;;;;;;;;5028353;28;20473;-69
2020/12/20 04:53:33;;;;;;;29.45;2.05;;;;;;;;;;5029160;28;20044;-67
2020/12/20 04:56:00;;;;;;;25.80;1.83;;;;;;;;;;5029453;28;20038;-69
2020/12/20 04:58:26;;;;;;;31.95;2.15;;;;;;;;;;5028083;28;20457;-68
2020/12/20 05:00:52;;;;;;;29.17;2.15;;;;;;;;;;5028185;28;20036;-69
2020/12/20 05:03:17;;;;;;;22.33;2.25;;;;;;;;;;5028909;28;20030;-67
2020/12/20 05:05:42;;;;;;;19.20;2.00;;;;;;;;;;5031835;28;20040;-68
2020/12/20 05:08:08;;;;;;;33.80;3.17;;;;;;;;;;5031506;28;20470;-67
2020/12/20 05:10:40;;;;;;;33.22;2.78;;;;;;;;;;5032824;28;20080;-75
2020/12/20 05:13:05;;;;;;;34.70;2.42;;;;;;;;;;5025723;28;20112;-67
2020/12/20 05:15:31;;;;;;;25.45;1.80;;;;;;;;;;5033001;28;20486;-68
2020/12/20 05:18:03;;;;;;;23.63;2.72;;;;;;;;;;5031234;28;20540;-67
2020/12/20 05:20:41;;;;;;;25.08;2.38;;;;;;;;;;5032268;28;20143;-68
2020/12/20 05:23:07;;;;;;;19.92;2.20;;;;;;;;;;5031588;28;20041;-74
2020/12/20 05:25:33;;;;;;;22.38;2.35;;;;;;;;;;5032011;28;20048;-67
2020/12/20 05:28:05;;;;;;;24.80;2.33;;;;;;;;;;5031438;28;20151;-67
2020/12/20 05:30:30;;;;;;;20.10;2.10;;;;;;;;;;5032039;28;20040;-68
2020/12/20 05:32:56;;;;;;;17.50;2.38;;;;;;;;;;5031404;28;20058;-68
2020/12/20 05:35:21;;;;;;;26.98;2.78;;;;;;;;;;5031839;28;20084;-68
2020/12/20 05:37:46;;;;;;;26.17;2.00;;;;;;;;;;5031489;28;20029;-68
2020/12/20 05:40:38;;;;;;;18.77;1.95;;;;;;;;;;5031412;28;20073;-68
2020/12/20 05:43:03;;;;;;;22.33;2.50;;;;;;;;;;5015987;28;20486;-67
2020/12/20 05:45:33;;;;;;;22.98;1.77;;;;;;;;;;5031765;28;20207;-69
2020/12/20 05:47:58;;;;;;;22.17;2.58;;;;;;;;;;5031241;28;20568;-68
2020/12/20 05:50:28;;;;;;;14.35;2.78;;;;;;;;;;5031983;28;20069;-68
2020/12/20 05:53:04;;;;;;;19.77;1.98;;;;;;;;;;5030512;28;20386;-68
2020/12/20 05:55:39;;;;;;;21.15;1.73;;;;;;;;;;5031196;28;20497;-68
2020/12/20 05:58:08;;;;;;;26.20;2.20;;;;;;;;;;5030831;28;20033;-68
2020/12/20 06:00:36;;;;;;;18.10;1.80;;;;;;;;;;5030760;28;20032;-68
2020/12/20 06:03:01;;;;;;;22.95;2.08;;;;;;;;;;5032912;28;20505;-67
2020/12/20 06:05:32;;;;;;;26.10;2.03;;;;;;;;;;5039304;28;20087;-68
2020/12/20 06:08:02;;;;;;;20.17;1.90;;;;;;;;;;5031269;28;20112;-68
2020/12/20 06:10:30;;;;;;;16.45;1.70;;;;;;;;;;5030872;28;20485;-68
2020/12/20 06:12:56;;;;;;;18.52;1.85;;;;;;;;;;5030538;28;20036;-68
2020/12/20 06:15:29;;;;;;;18.70;1.52;;;;;;;;;;5030528;28;20032;-69
2020/12/20 06:17:55;;;;;;;16.40;1.92;;;;;;;;;;5030487;28;20025;-68
2020/12/20 06:20:28;;;;;;;21.90;2.10;;;;;;;;;;5030400;28;20080;-68
2020/12/20 06:22:53;;;;;;;27.65;2.20;;;;;;;;;;5030360;28;20520;-69
2020/12/20 06:25:23;;;;;;;18.35;2.33;;;;;;;;;;5031546;28;20049;-68
2020/12/20 06:27:49;;;;;;;20.88;1.90;;;;;;;;;;5030366;28;20472;-68
2020/12/20 06:30:14;;;;;;;24.55;2.20;;;;;;;;;;5030850;28;20033;-67
2020/12/20 06:32:43;;;;;;;14.02;1.40;;;;;;;;;;5030532;28;20085;-71
2020/12/20 06:35:20;;;;;;;26.88;2.60;;;;;;;;;;5029803;28;20024;-68
2020/12/20 06:37:46;;;;;;;14.55;1.80;;;;;;;;;;5030500;28;20059;-68
2020/12/20 06:40:12;;;;;;;17.35;1.98;;;;;;;;;;5030453;28;20073;-68
2020/12/20 06:42:39;;;;;;;24.10;2.13;;;;;;;;;;5034263;28;20032;-69
2020/12/20 06:45:15;;;;;;;17.80;2.38;;;;;;;;;;5030150;28;20124;-67
2020/12/20 06:47:41;;;;;;;16.05;1.85;;;;;;;;;;5029859;28;20491;-68
2020/12/20 06:50:06;;;;;;;24.23;2.42;;;;;;;;;;5030633;28;20036;-68
2020/12/20 06:52:31;;;;;;;15.40;3.10;;;;;;;;;;5030079;28;20038;-68
2020/12/20 06:55:17;;;;;;;17.88;2.03;;;;;;;;;;5029689;28;20410;-72
2020/12/20 06:58:01;;;;;;;8.77;1.80;;;;;;;;;;5029428;28;20765;-68
2020/12/20 07:00:41;;;;;;;36.55;6.65;;;;;;;;;;5029944;28;20083;-68
2020/12/20 07:03:07;;;;;;;22.05;3.83;;;;;;;;;;5029875;28;20025;-68
2020/12/20 07:05:35;;;;;;;27.52;4.97;;;;;;;;;;5029860;28;20052;-68
2020/12/20 07:08:19;;;;;;;18.48;3.38;;;;;;;;;;5029494;28;20059;-74
2020/12/20 07:10:45;;;;;;;13.82;2.03;;;;;;;;;;5030094;28;20584;-67
2020/12/20 07:13:12;;;;;;;22.98;2.50;;;;;;;;;;5029663;28;20386;-68
2020/12/20 07:15:44;;;;;;;17.10;2.63;;;;;;;;;;5029743;28;20117;-68
2020/12/20 07:18:09;;;;;;;35.28;5.30;;;;;;;;;;5042968;28;20049;-68
2020/12/20 07:20:34;;;;;;;31.40;6.63;;;;;;;;;;5010460;28;20474;-68
2020/12/20 07:23:00;;;;;;;26.25;3.75;;;;;;;;;;5023725;28;20087;-68
2020/12/20 07:25:26;;;;;;;29.42;2.60;;;;;;;;;;5029818;28;20045;-68
2020/12/20 07:27:52;;;;;;;18.80;3.00;;;;;;;;;;5028482;28;20034;-68
2020/12/20 07:30:17;;;;;;;19.40;1.70;;;;;;;;;;5028041;28;20025;-68
2020/12/20 07:32:42;;;;;;;21.75;1.60;;;;;;;;;;5029564;28;20111;-68
2020/12/20 07:35:12;;;;;;;15.63;1.88;;;;;;;;;;5028913;28;20038;-69
2020/12/20 07:37:49;;;;;;;25.83;1.85;;;;;;;;;;5029814;28;20021;-74
2020/12/20 07:40:17;;;;;;;27.40;2.75;;;;;;;;;;5028465;28;20026;-68
2020/12/20 07:42:42;;;;;;;20.10;1.92;;;;;;;;;;5020006;28;20065;-68
2020/12/20 07:45:11;;;;;;;15.80;1.85;;;;;;;;;;5027251;28;20118;-68
2020/12/20 07:47:36;;;;;;;12.60;1.63;;;;;;;;;;5026550;28;20120;-69
2020/12/20 07:50:01;;;;;;;15.60;1.45;;;;;;;;;;5025675;28;20124;-68
2020/12/20 07:52:26;;;;;;;18.45;1.83;;;;;;;;;;5025430;28;20386;-68
2020/12/20 07:54:57;;;;;;;23.13;2.25;;;;;;;;;;5025987;28;20044;-68
2020/12/20 07:57:22;;;;;;;15.60;1.77;;;;;;;;;;5026103;28;20112;-69
2020/12/20 07:59:59;;;;;;;20.13;2.08;;;;;;;;;;5025533;28;20018;-69
2020/12/20 08:02:24;;;;;;;19.02;3.40;;;;;;;;;;5026643;28;20106;-68
2020/12/20 08:04:50;;;;;;;15.50;1.75;;;;;;;;;;5025790;28;20436;-68
2020/12/20 08:07:15;;;;;;;15.32;2.03;;;;;;;;;;5026384;28;20017;-73
2020/12/20 08:09:40;;;;;;;9.18;1.30;;;;;;;;;;5027769;28;20418;-69
2020/12/20 08:12:05;;;;;;;15.32;2.05;;;;;;;;;;5022265;28;20045;-70
2020/12/20 08:14:31;;;;;;;30.63;2.72;;;;;;;;;;5026845;28;20095;-68
2020/12/20 08:16:56;;;;;;;18.75;3.00;;;;;;;;;;5027737;28;20040;-68
2020/12/20 08:19:25;;;;;;;25.38;5.38;;;;;;;;;;5028694;28;20037;-74
2020/12/20 08:21:53;;;;;;;17.30;4.82;;;;;;;;;;5028408;28;20025;-68
2020/12/20 08:24:19;;;;;;;15.98;2.05;;;;;;;;;;5028030;28;20029;-69
2020/12/20 08:26:44;;;;;;;17.73;2.40;;;;;;;;;;5028638;28;20119;-68
2020/12/20 08:29:13;;;;;;;22.95;1.95;;;;;;;;;;5028394;28;20021;-67
2020/12/20 08:31:39;;;;;;;10.60;1.75;;;;;;;;;;5028761;28;20045;-68
2020/12/20 08:34:13;;;;;;;15.35;1.85;;;;;;;;;;5028350;28;20029;-68
2020/12/20 08:36:41;;;;;;;12.63;1.70;;;;;;;;;;5028613;28;20033;-68
2020/12/20 08:39:06;;;;;;;12.95;1.95;;;;;;;;;;5037154;28;20033;-68
2020/12/20 08:41:32;;;;;;;19.40;1.85;;;;;;;;;;5038136;28;20388;-68
2020/12/20 08:44:07;;;;;;;14.70;1.80;;;;;;;;;;5041079;28;20025;-68
2020/12/20 08:46:32;;;;;;;;;;;;;;;;;;5038112;28;20041;-68
2020/12/20 08:49:09;;;;;;;14.87;2.27;;;;;;;;;;5043401;28;19916;-68
2020/12/20 08:51:34;;;;;;;16.45;1.70;;;;;;;;;;5036226;28;20029;-74
2020/12/20 08:53:59;;;;;;;10.90;2.05;;;;;;;;;;5028930;28;20043;-68
2020/12/20 08:56:25;;;;;;;5.68;1.58;;;;;;;;;;5033555;28;20040;-69
2020/12/20 08:58:50;;;;;;;12.88;1.25;;;;;;;;;;5031778;28;20033;-68
2020/12/20 09:01:15;;;;;;;13.70;1.65;;;;;;;;;;5031769;28;20032;-68
2020/12/20 09:03:41;;;;;;;18.10;2.53;;;;;;;;;;5031762;28;20449;-70
2020/12/20 09:06:13;;;;;;;8.73;1.60;;;;;;;;;;5031579;28;20099;-68
2020/12/20 09:08:38;;;;;;;8.98;2.00;;;;;;;;;;5018772;28;20489;-69
2020/12/20 09:11:03;;;;;;;10.80;1.63;;;;;;;;;;5027064;28;20037;-69
2020/12/20 09:13:28;;;;;;;9.25;1.42;;;;;;;;;;5032702;28;20034;-69
2020/12/20 09:15:54;;;;;;;4.15;1.20;;;;;;;;;;5042853;28;20033;-70
2020/12/20 09:18:25;;;;;;;9.68;1.40;;;;;;;;;;5023145;28;20056;-68
2020/12/20 09:20:51;;;;;;;12.35;1.63;;;;;;;;;;5031366;28;20033;-70
2020/12/20 09:23:18;;;;;;;10.82;2.20;;;;;;;;;;5034237;28;20020;-70
2020/12/20 09:25:43;;;;;;;11.25;1.52;;;;;;;;;;5031784;28;20056;-70
2020/12/20 09:28:10;;;;;;;12.57;2.55;;;;;;;;;;5038906;28;20038;-74
2020/12/20 09:30:38;;;;;;;16.25;2.50;;;;;;;;;;5040537;28;20017;-68
2020/12/20 09:33:16;;;;;;;13.63;2.63;;;;;;;;;;5034211;28;20057;-69
2020/12/20 09:35:48;;;;;;;9.10;1.63;;;;;;;;;;5039217;28;20105;-72
2020/12/20 09:38:13;;;;;;;16.27;2.83;;;;;;;;;;5033883;28;20040;-68
2020/12/20 09:40:39;;;;;;;12.50;2.30;;;;;;;;;;5036249;28;20020;-68
2020/12/20 09:43:04;;;;;;;14.00;2.30;;;;;;;;;;5015554;28;20470;-69
2020/12/20 09:45:29;;;;;;;10.48;1.73;;;;;;;;;;5022641;28;20037;-72
2020/12/20 09:47:54;;;;;;;23.10;4.15;;;;;;;;;;5023600;28;20399;-68
2020/12/20 09:50:20;;;;;;;18.75;4.25;;;;;;;;;;5022185;28;20036;-72
2020/12/20 09:52:45;;;;;;;18.30;6.25;;;;;;;;;;5023389;28;20139;-68
2020/12/20 09:55:10;;;;;;;16.77;2.90;;;;;;;;;;5023576;28;20074;-69
2020/12/20 09:57:36;;;;;;;16.05;2.20;;;;;;;;;;5023548;28;20094;-71
2020/12/20 10:00:01;;;;;;;10.05;1.80;;;;;;;;;;5026954;28;20040;-69
2020/12/20 10:02:27;;;;;;;17.70;2.40;;;;;;;;;;5027977;28;20101;-70
2020/12/20 10:04:52;;;;;;;12.40;2.28;;;;;;;;;;5025639;28;20513;-74
2020/12/20 10:07:17;;;;;;;10.13;3.10;;;;;;;;;;5030437;28;20037;-69
2020/12/20 10:09:42;;;;;;;10.38;1.65;;;;;;;;;;5024027;28;20025;-68
2020/12/20 10:12:08;;;;;;;10.05;1.73;;;;;;;;;;5038842;28;20026;-68
2020/12/20 10:14:33;;;;;;;17.48;2.05;;;;;;;;;;5033307;28;20098;-74
2020/12/20 10:16:59;;;;;;;19.77;2.33;;;;;;;;;;5036594;28;20048;-71
2020/12/20 10:19:24;;;;;;;13.95;1.98;;;;;;;;;;5033364;28;20025;-74
2020/12/20 10:21:50;;;;;;;11.00;1.73;;;;;;;;;;5025303;28;20136;-69
2020/12/20 10:24:16;;;;;;;11.52;2.38;;;;;;;;;;5035373;28;20512;-69
2020/12/20 10:26:45;;;;;;;13.68;1.40;;;;;;;;;;5037281;28;20025;-68
2020/12/20 10:29:13;;;;;;;10.25;1.75;;;;;;;;;;5036219;28;20134;-68
2020/12/20 10:31:38;;;;;;;12.63;1.80;;;;;;;;;;5023955;28;20042;-69
2020/12/20 10:34:04;;;;;;;14.45;1.98;;;;;;;;;;5028470;28;20527;-74
2020/12/20 10:36:29;;;;;;;10.02;2.03;;;;;;;;;;5030995;28;20044;-69
2020/12/20 10:38:54;;;;;;;14.00;3.95;;;;;;;;;;5038136;28;20029;-69
2020/12/20 10:41:19;;;;;;;12.40;1.83;;;;;;;;;;5033372;28;20082;-69
2020/12/20 10:43:45;;;;;;;16.52;2.70;;;;;;;;;;5044276;28;20033;-70
2020/12/20 10:46:11;;;;;;;10.70;1.63;;;;;;;;;;5037905;28;20102;-69
2020/12/20 10:48:37;;;;;;;9.05;1.88;;;;;;;;;;5023890;28;20034;-72
2020/12/20 10:51:02;;;;;;;7.18;1.80;;;;;;;;;;5034785;28;20082;-72
2020/12/20 10:53:27;;;;;;;10.65;2.03;;;;;;;;;;5027052;28;20485;-70
2020/12/20 10:55:53;;;;;;;10.93;2.60;;;;;;;;;;5037729;28;20033;-69
2020/12/20 10:58:18;;;;;;;16.92;3.35;;;;;;;;;;5027214;28;20048;-70
2020/12/20 11:00:43;;;;;;;18.70;4.00;;;;;;;;;;5040219;28;20048;-69
2020/12/20 11:03:08;;;;;;;13.05;3.05;;;;;;;;;;5031569;28;20032;-70
2020/12/20 11:05:34;;;;;;;13.90;2.90;;;;;;;;;;5035820;28;20047;-69
2020/12/20 11:07:59;;;;;;;13.85;2.78;;;;;;;;;;5023052;28;20529;-70
2020/12/20 11:10:25;;;;;;;6.90;1.77;;;;;;;;;;5028954;28;20057;-69
2020/12/20 11:12:50;;;;;;;14.20;2.30;;;;;;;;;;5044153;28;20071;-69
2020/12/20 11:15:15;;;;;;;8.95;2.30;;;;;;;;;;5042478;28;20036;-70
2020/12/20 11:17:41;;;;;;;16.23;2.50;;;;;;;;;;5046107;28;20438;-69
2020/12/20 11:20:06;;;;;;;8.00;2.00;;;;;;;;;;5030600;28;20037;-69
2020/12/20 11:22:31;;;;;;;5.95;2.25;;;;;;;;;;5043022;28;20072;-69
2020/12/20 11:24:56;;;;;;;9.27;1.88;;;;;;;;;;5027379;28;20128;-68
2020/12/20 11:27:22;;;;;;;15.95;2.58;;;;;;;;;;5028312;28;20037;-74
2020/12/20 11:29:47;;;;;;;16.25;2.58;;;;;;;;;;5040024;28;20051;-69
2020/12/20 11:32:12;;;;;;;12.55;2.42;;;;;;;;;;5029335;28;20049;-69
2020/12/20 11:34:38;;;;;;;12.85;2.58;;;;;;;;;;5031735;28;20037;-69
2020/12/20 11:37:03;;;;;;;7.10;2.20;;;;;;;;;;5039406;28;20021;-69
2020/12/20 11:39:28;;;;;;;9.13;1.90;;;;;;;;;;5036659;28;20064;-69
2020/12/20 11:41:53;;;;;;;11.77;2.05;;;;;;;;;;5045995;28;20090;-69
2020/12/20 11:44:20;;;;;;;8.82;1.42;;;;;;;;;;5045084;28;20733;-69
2020/12/20 11:46:45;;;;;;;12.27;1.75;;;;;;;;;;5030994;28;20064;-71
2020/12/20 11:49:10;;;;;;;10.93;1.48;;;;;;;;;;5036883;28;20068;-68
2020/12/20 11:51:35;;;;;;;5.22;1.30;;;;;;;;;;5029793;28;20025;-69
2020/12/20 11:54:01;;;;;;;10.70;1.98;;;;;;;;;;5038644;28;20078;-70
2020/12/20 11:56:26;;;;;;;12.63;1.85;;;;;;;;;;5030012;28;20029;-69
2020/12/20 11:58:51;;;;;;;11.77;2.38;;;;;;;;;;5040358;28;20021;-69
2020/12/20 12:01:24;;;;;;;12.25;2.38;;;;;;;;;;5035174;28;20036;-68
2020/12/20 12:03:49;;;;;;;12.63;2.80;;;;;;;;;;5032314;28;20194;-69
2020/12/20 12:06:15;;;;;;;8.85;2.40;;;;;;;;;;5031664;28;20511;-69
2020/12/20 12:08:41;;;;;;;12.15;2.03;;;;;;;;;;5034810;28;20380;-69
2020/12/20 12:11:06;;;;;;;10.10;1.92;;;;;;;;;;5025577;28;20087;-69
2020/12/20 12:13:31;;;;;;;11.23;2.03;;;;;;;;;;5036933;28;20029;-68
2020/12/20 12:15:57;;;;;;;10.73;2.42;;;;;;;;;;5035208;28;20494;-68
2020/12/20 12:18:22;;;;;;;18.55;3.20;;;;;;;;;;5046402;28;20049;-72
2020/12/20 12:20:47;;;;;;;17.08;2.53;;;;;;;;;;5034838;28;20086;-69
2020/12/20 12:23:12;;;;;;;9.13;1.98;;;;;;;;;;5034437;28;20048;-69
2020/12/20 12:25:38;;;;;;;8.43;1.50;;;;;;;;;;5031709;28;20890;-68
2020/12/20 12:28:03;;;;;;;16.13;1.98;;;;;;;;;;5035511;28;20029;-71
2020/12/20 12:30:28;;;;;;;10.25;1.77;;;;;;;;;;5037354;28;20036;-68
2020/12/20 12:32:54;;;;;;;11.18;2.30;;;;;;;;;;5035379;28;20079;-70
2020/12/20 12:35:21;;;;;;;5.45;1.42;;;;;;;;;;5040017;28;20454;-69
2020/12/20 12:37:46;;;;;;;11.80;1.92;;;;;;;;;;5042400;28;20110;-68
2020/12/20 12:40:12;;;;;;;11.38;1.67;;;;;;;;;;5035000;28;20264;-68
2020/12/20 12:42:41;;;;;;;13.93;2.17;;;;;;;;;;5041029;28;20055;-68
2020/12/20 12:45:06;;;;;;;11.90;1.83;;;;;;;;;;5032964;28;20489;-68
2020/12/20 12:47:31;;;;;;;14.25;1.95;;;;;;;;;;5031744;28;20036;-68
2020/12/20 12:49:57;;;;;;;10.85;2.33;;;;;;;;;;5032124;28;20382;-69
2020/12/20 12:52:22;;;;;;;18.10;1.70;;;;;;;;;;5032618;28;20034;-67
2020/12/20 12:54:47;;;;;;;18.92;2.20;;;;;;;;;;5042943;28;20563;-68
2020/12/20 12:57:12;;;;;;;9.90;1.50;;;;;;;;;;5052270;28;20100;-73
2020/12/20 12:59:38;;;;;;;18.88;2.78;;;;;;;;;;5034732;28;20112;-68
2020/12/20 13:02:04;;;;;;;11.43;2.08;;;;;;;;;;5034568;28;20067;-70
2020/12/20 13:04:30;;;;;;;6.85;1.45;;;;;;;;;;5035427;28;20053;-69
2020/12/20 13:06:55;;;;;;;7.80;1.27;;;;;;;;;;5039355;28;20061;-71
2020/12/20 13:09:20;;;;;;;4.90;1.17;;;;;;;;;;5030336;28;20112;-68
2020/12/20 13:11:46;;;;;;;1.95;0.52;;;;;;;;;;5035201;28;20009;-74
2020/12/20 13:14:11;;;;;;;3.80;0.88;;;;;;;;;;5032196;28;20037;-68
2020/12/20 13:16:36;;;;;;;2.50;1.10;;;;;;;;;;5031593;28;20037;-68
2020/12/20 13:19:02;;;;;;;6.75;1.77;;;;;;;;;;5031583;28;20029;-68
2020/12/20 13:21:27;;;;;;;7.65;1.88;;;;;;;;;;5031234;28;20017;-70
2020/12/20 13:23:53;;;;;;;6.53;1.02;;;;;;;;;;5032264;28;20025;-69
2020/12/20 13:26:19;;;;;;;7.10;1.38;;;;;;;;;;5031765;28;20037;-68
2020/12/20 13:28:44;;;;;;;7.80;1.70;;;;;;;;;;5031403;28;20025;-67
2020/12/20 13:31:10;;;;;;;3.97;0.90;;;;;;;;;;5031537;28;20045;-68
2020/12/20 13:33:35;;;;;;;4.47;0.85;;;;;;;;;;5030301;28;20045;-67
2020/12/20 13:36:04;;;;;;;2.58;0.75;;;;;;;;;;5031720;28;20022;-68
2020/12/20 13:38:30;;;;;;;2.00;0.77;;;;;;;;;;5032067;28;20037;-68
2020/12/20 13:40:55;;;;;;;5.30;1.40;;;;;;;;;;5031649;28;20151;-68
2020/12/20 13:43:20;;;;;;;2.15;0.93;;;;;;;;;;5032061;28;20030;-68
2020/12/20 13:45:45;;;;;;;3.20;1.02;;;;;;;;;;5031475;28;20123;-68
2020/12/20 13:48:11;;;;;;;4.13;0.95;;;;;;;;;;5031390;28;20477;-68
2020/12/20 13:50:36;;;;;;;2.22;0.70;;;;;;;;;;5030305;28;20025;-67
2020/12/20 13:53:02;;;;;;;4.88;0.93;;;;;;;;;;5031384;28;20045;-68
2020/12/20 13:55:27;;;;;;;3.28;0.80;;;;;;;;;;5031278;28;20072;-70
2020/12/20 13:57:53;;;;;;;5.28;1.90;;;;;;;;;;5031730;28;20466;-68
2020/12/20 14:00:18;;;;;;;3.28;1.15;;;;;;;;;;5024933;28;20040;-68
2020/12/20 14:02:43;;;;;;;2.60;1.13;;;;;;;;;;5015545;28;20033;-70
2020/12/20 14:05:09;;;;;;;6.57;1.70;;;;;;;;;;5027266;28;20559;-68
2020/12/20 14:07:34;;;;;;;4.43;1.30;;;;;;;;;;5029230;28;20040;-68
2020/12/20 14:09:59;;;;;;;3.95;0.80;;;;;;;;;;5030055;28;20681;-74
2020/12/20 14:12:25;;;;;;;2.90;0.88;;;;;;;;;;5027117;28;20057;-69
2020/12/20 14:14:52;;;;;;;9.32;1.52;;;;;;;;;;5029825;28;20033;-69
2020/12/20 14:17:17;;;;;;;6.60;1.63;;;;;;;;;;5027433;28;20514;-69
2020/12/20 14:19:43;;;;;;;8.40;2.63;;;;;;;;;;5029466;28;20144;-69
2020/12/20 14:22:08;;;;;;;4.82;1.50;;;;;;;;;;5030065;28;20061;-68
2020/12/20 14:24:35;;;;;;;10.63;2.15;;;;;;;;;;5038931;28;20037;-73
2020/12/20 14:27:02;;;;;;;7.90;3.65;;;;;;;;;;5029936;28;20083;-69
2020/12/20 14:29:28;;;;;;;9.30;3.13;;;;;;;;;;5028869;28;20112;-69